Time;durP1;ratioP1;P1;durP2;ratioP2;P2;SDS_P1;SDS_P2;PMS_P1;PMS_P2;Temp;Humidity;BMP_temperature;BMP_pressure;BME280_temperature;BME280_humidity;BME280_pressure;Samples;Min_cycle;Max_cycle;Signal;HPM_P1;HPM_P2
2022/04/24 00:00:32;;;;;;;28.95;21.65;;;8.50;99.90;;;7.49;83.99;95410.66;4949347;29;20413;-82
2022/04/24 00:02:58;;;;;;;29.60;21.75;;;8.50;99.90;;;7.53;83.72;95409.00;4949984;29;20800;-82
2022/04/24 00:05:24;;;;;;;26.70;20.10;;;8.60;99.90;;;7.54;83.69;95402.69;4938743;28;20430;-81
2022/04/24 00:07:50;;;;;;;29.63;21.70;;;8.60;99.90;;;7.60;83.65;95393.66;4941405;28;20412;-82
2022/04/24 00:10:16;;;;;;;30.25;22.50;;;8.60;99.90;;;7.65;83.42;95398.91;4949017;28;20414;-82
2022/04/24 00:12:44;;;;;;;28.33;20.65;;;8.70;99.90;;;7.65;83.23;95400.75;4949307;29;20430;-82
2022/04/24 00:15:10;;;;;;;29.67;21.25;;;8.70;99.90;;;7.66;83.40;95400.47;4932327;28;20988;-82
2022/04/24 00:17:37;;;;;;;29.63;21.90;;;8.70;99.90;;;7.70;83.27;95395.41;4930113;28;20454;-82
2022/04/24 00:20:05;;;;;;;22.45;17.33;;;8.70;99.90;;;7.71;83.45;95392.50;4929235;28;20777;-82
2022/04/24 00:22:30;;;;;;;22.67;17.58;;;8.80;99.90;;;7.74;83.63;95385.91;4943285;28;20402;-82
2022/04/24 00:24:56;;;;;;;23.80;18.42;;;8.80;99.90;;;7.78;83.55;95386.88;4928382;28;20432;-83
2022/04/24 00:27:22;;;;;;;26.77;19.57;;;8.80;99.90;;;7.83;83.05;95380.75;4929676;28;20503;-82
2022/04/24 00:29:49;;;;;;;30.08;21.02;;;8.90;99.90;;;7.84;82.85;95371.81;4931620;28;20421;-82
2022/04/24 00:32:16;;;;;;;26.77;20.80;;;8.80;99.90;;;7.87;82.86;95374.66;4948474;28;20426;-82
2022/04/24 00:34:41;;;;;;;25.80;19.52;;;8.90;99.90;;;7.88;82.60;95367.56;4949769;28;20422;-82
2022/04/24 00:37:08;;;;;;;25.88;20.50;;;8.90;99.90;;;7.88;82.74;95357.00;4949848;28;20779;-82
2022/04/24 00:39:33;;;;;;;23.55;18.25;;;8.90;99.90;;;7.86;82.91;95367.81;4937426;28;20420;-82
2022/04/24 00:42:00;;;;;;;28.70;21.60;;;8.90;99.90;;;7.92;82.79;95371.97;4950617;28;20412;-82
2022/04/24 00:44:27;;;;;;;25.58;19.75;;;8.90;99.90;;;7.91;82.88;95362.50;4947988;29;20910;-83
2022/04/24 00:46:59;;;;;;;25.10;19.45;;;8.90;99.90;;;7.90;82.95;95363.53;4946148;28;20414;-83
2022/04/24 00:49:25;;;;;;;27.15;20.25;;;8.90;99.90;;;7.92;82.89;95363.28;4945874;29;21019;-82
2022/04/24 00:51:52;;;;;;;25.45;19.65;;;8.90;99.90;;;7.94;82.67;95354.03;4951841;28;20433;-82
2022/04/24 00:54:18;;;;;;;24.63;19.48;;;9.00;99.90;;;7.93;82.86;95351.69;4952123;28;20862;-82
2022/04/24 00:56:44;;;;;;;25.60;19.10;;;9.00;99.90;;;7.96;83.21;95351.13;4951848;28;20518;-82
2022/04/24 00:59:13;;;;;;;23.45;18.67;;;9.00;99.90;;;7.97;83.04;95352.69;4943981;29;20402;-82
2022/04/24 01:01:40;;;;;;;26.95;20.70;;;9.00;99.90;;;8.01;82.70;95351.81;4951652;28;20452;-82
2022/04/24 01:04:10;;;;;;;27.67;20.20;;;9.00;99.90;;;8.04;82.87;95353.13;4950639;28;20411;-82
2022/04/24 01:06:42;;;;;;;23.88;19.33;;;9.00;99.90;;;8.04;82.77;95350.47;4945562;28;20449;-81
2022/04/24 01:09:10;;;;;;;27.08;20.38;;;9.00;99.90;;;8.08;82.92;95335.66;4943592;28;20994;-82
2022/04/24 01:11:36;;;;;;;27.33;20.35;;;9.10;99.90;;;8.10;82.49;95339.59;4947296;28;20432;-82
2022/04/24 01:14:02;;;;;;;26.35;20.30;;;9.10;99.90;;;8.12;82.24;95336.66;4931374;28;20446;-82
2022/04/24 01:16:28;;;;;;;25.53;20.20;;;9.10;99.90;;;8.13;82.43;95336.38;4932945;29;20561;-82
2022/04/24 01:18:55;;;;;;;26.77;20.02;;;9.10;99.90;;;8.16;82.41;95340.28;4933106;28;20424;-83
2022/04/24 01:21:22;;;;;;;24.27;19.75;;;9.20;99.90;;;8.19;82.16;95346.84;4937359;28;20418;-81
2022/04/24 01:23:48;;;;;;;27.55;19.83;;;9.20;99.90;;;8.22;81.79;95348.91;4952663;29;20409;-83
2022/04/24 01:26:14;;;;;;;28.67;20.63;;;9.20;99.90;;;8.25;81.82;95358.88;4952572;28;20457;-84
2022/04/24 01:28:40;;;;;;;24.88;19.67;;;9.30;99.90;;;8.25;81.97;95341.22;4954263;29;20406;-84
2022/04/24 01:31:06;;;;;;;23.33;17.77;;;9.30;99.90;;;8.27;81.98;95346.97;4948161;29;20410;-83
2022/04/24 01:33:32;;;;;;;28.33;20.67;;;9.30;99.90;;;8.30;81.79;95349.03;4944761;28;20427;-84
2022/04/24 01:35:59;;;;;;;26.40;20.85;;;9.30;99.90;;;8.32;81.71;95354.84;4941767;28;20444;-83
2022/04/24 01:38:28;;;;;;;26.67;20.53;;;9.30;99.90;;;8.35;81.34;95356.13;4951775;28;20491;-83
2022/04/24 01:40:54;;;;;;;25.25;19.00;;;9.30;99.90;;;8.33;81.34;95360.91;4949971;28;20443;-82
2022/04/24 01:43:20;;;;;;;24.30;19.55;;;9.30;99.90;;;8.35;81.57;95353.47;4946272;29;20412;-83
2022/04/24 01:45:46;;;;;;;25.58;19.90;;;9.30;99.90;;;8.38;81.51;95361.63;4932533;29;20416;-82
2022/04/24 01:48:12;;;;;;;25.65;20.00;;;9.40;99.90;;;8.38;81.30;95360.81;4932363;29;20439;-83
2022/04/24 01:50:38;;;;;;;22.23;18.27;;;9.40;99.90;;;8.37;81.37;95361.91;4939760;28;20550;-83
2022/04/24 01:53:05;;;;;;;25.60;18.52;;;9.30;99.90;;;8.40;81.61;95362.13;4950987;29;20564;-83
2022/04/24 01:55:32;;;;;;;35.60;22.10;;;9.40;99.90;;;8.43;82.93;95363.38;4964682;28;20409;-84
2022/04/24 01:57:58;;;;;;;32.80;22.33;;;9.40;99.90;;;8.37;84.51;95385.63;4967525;29;20583;-84
2022/04/24 02:00:24;;;;;;;32.47;23.88;;;9.40;99.90;;;8.30;85.24;95403.63;4942194;29;20473;-83
2022/04/24 02:02:50;;;;;;;32.67;24.33;;;9.30;99.90;;;8.26;85.62;95419.22;4939863;28;20398;-82
2022/04/24 02:05:17;;;;;;;31.25;23.15;;;9.30;99.90;;;8.31;86.06;95418.41;4939966;29;20416;-83
2022/04/24 02:07:43;;;;;;;29.38;21.83;;;9.30;99.90;;;8.32;86.52;95412.06;4931955;29;20473;-83
2022/04/24 02:10:10;;;;;;;34.72;24.77;;;9.30;99.90;;;8.36;86.66;95411.19;4934252;28;20422;-83
2022/04/24 02:12:40;;;;;;;31.42;23.20;;;9.30;99.90;;;8.36;86.98;95416.47;4943056;28;20429;-83
2022/04/24 02:15:07;;;;;;;28.90;21.60;;;9.40;99.90;;;8.39;87.38;95413.28;4951059;28;20441;-83
2022/04/24 02:17:34;;;;;;;30.60;23.15;;;9.30;99.90;;;8.37;87.62;95404.84;4947286;28;20436;-83
2022/04/24 02:20:00;;;;;;;30.98;24.08;;;9.40;99.90;;;8.41;87.88;95415.63;4950821;28;20408;-84
2022/04/24 02:22:31;;;;;;;33.05;24.10;;;9.40;99.90;;;8.42;88.07;95425.13;4950737;29;20406;-83
2022/04/24 02:24:57;;;;;;;33.20;24.58;;;9.40;99.90;;;8.41;88.00;95426.19;4950885;28;20435;-83
2022/04/24 02:27:23;;;;;;;37.35;24.42;;;9.40;99.90;;;8.40;88.18;95433.31;4941234;28;20792;-83
2022/04/24 02:29:50;;;;;;;32.03;25.13;;;9.40;99.90;;;8.37;88.48;95428.59;4947807;29;20402;-83
2022/04/24 02:32:16;;;;;;;36.28;26.15;;;9.40;99.90;;;8.40;88.80;95428.03;4948982;29;20421;-83
2022/04/24 02:34:42;;;;;;;41.88;27.65;;;9.40;99.90;;;8.39;89.31;95430.94;4946697;28;20895;-82
2022/04/24 02:37:08;;;;;;;46.13;30.02;;;9.40;99.90;;;8.34;90.17;95441.56;4950395;28;20838;-83
2022/04/24 02:39:35;;;;;;;51.90;32.90;;;9.30;99.90;;;8.32;91.04;95448.97;4950006;29;20414;-82
2022/04/24 02:42:02;;;;;;;62.13;32.55;;;9.30;99.90;;;8.23;91.47;95450.63;4952122;28;20780;-80
2022/04/24 02:44:28;;;;;;;66.57;35.58;;;9.30;99.90;;;8.22;92.23;95441.94;4954887;28;20429;-80
2022/04/24 02:46:55;;;;;;;71.78;40.55;;;9.20;99.90;;;8.27;93.22;95452.41;4955982;28;20421;-80
2022/04/24 02:49:21;;;;;;;92.97;40.83;;;9.20;99.90;;;8.22;94.06;95438.50;4937945;28;20535;-80
2022/04/24 02:51:47;;;;;;;96.07;41.92;;;9.20;99.90;;;8.20;94.29;95427.47;4943667;28;20414;-79
2022/04/24 02:54:13;;;;;;;109.85;41.42;;;9.20;99.90;;;8.19;94.58;95434.59;4939087;28;20420;-79
2022/04/24 02:56:39;;;;;;;127.65;47.17;;;9.20;99.90;;;8.20;94.69;95430.09;4942199;28;20410;-79
2022/04/24 02:59:05;;;;;;;141.98;53.58;;;9.20;99.90;;;8.22;95.00;95428.75;4949011;28;20414;-79
2022/04/24 03:01:31;;;;;;;155.95;52.63;;;9.20;99.90;;;8.19;95.15;95429.34;4950400;28;20449;-79
2022/04/24 03:03:58;;;;;;;133.85;47.63;;;9.20;99.90;;;8.23;95.18;95429.53;4953122;28;20442;-79
2022/04/24 03:06:24;;;;;;;175.13;62.00;;;9.20;99.90;;;8.23;95.24;95425.06;4948481;28;20864;-78
2022/04/24 03:08:50;;;;;;;198.93;62.70;;;9.20;99.90;;;8.22;95.37;95431.38;4950780;28;20418;-80
2022/04/24 03:11:16;;;;;;;188.38;60.60;;;9.20;99.90;;;8.18;95.84;95430.41;4939776;28;20410;-79
2022/04/24 03:13:42;;;;;;;175.38;59.92;;;9.20;99.90;;;8.19;96.05;95431.19;4947566;28;20478;-79
2022/04/24 03:16:08;;;;;;;220.48;64.78;;;9.20;99.90;;;8.16;96.09;95429.91;4935671;29;20408;-80
2022/04/24 03:18:34;;;;;;;235.23;71.82;;;9.20;99.90;;;8.18;96.22;95424.34;4934128;29;20428;-80
2022/04/24 03:21:01;;;;;;;217.27;69.40;;;9.20;99.90;;;8.21;96.31;95431.66;4951005;28;20406;-80
2022/04/24 03:23:27;;;;;;;196.23;62.72;;;9.20;99.90;;;8.07;96.59;95424.47;4933409;29;20487;-80
2022/04/24 03:25:53;;;;;;;224.50;68.95;;;9.10;99.90;;;8.06;96.36;95432.66;4932288;28;20490;-80
2022/04/24 03:28:19;;;;;;;261.05;73.68;;;9.10;99.90;;;8.04;96.30;95421.63;4943455;28;20421;-80
2022/04/24 03:30:45;;;;;;;252.93;73.67;;;9.10;99.90;;;8.02;96.61;95429.81;4956127;28;20879;-80
2022/04/24 03:33:11;;;;;;;261.05;75.50;;;9.10;99.90;;;8.01;96.83;95428.22;4950523;28;20473;-80
2022/04/24 03:35:37;;;;;;;277.40;77.95;;;9.10;99.90;;;8.00;96.72;95434.56;4945003;29;20424;-80
2022/04/24 03:38:05;;;;;;;269.17;79.15;;;9.00;99.90;;;8.03;97.17;95439.28;4945640;28;20538;-81
2022/04/24 03:40:31;;;;;;;286.08;78.40;;;9.00;99.90;;;8.02;97.50;95440.34;4948276;29;20413;-81
2022/04/24 03:42:57;;;;;;;205.32;65.75;;;9.00;99.90;;;7.97;97.84;95448.28;4935443;29;20434;-80
2022/04/24 03:45:23;;;;;;;276.63;78.00;;;9.00;99.90;;;8.01;98.05;95446.66;4930483;28;20881;-81
2022/04/24 03:47:49;;;;;;;301.63;82.93;;;9.00;99.90;;;8.12;98.32;95453.38;4930358;28;20482;-80
2022/04/24 03:50:15;;;;;;;306.10;83.15;;;9.10;99.90;;;8.13;98.61;95451.53;4933631;28;20413;-80
2022/04/24 03:52:41;;;;;;;286.70;75.57;;;9.10;99.90;;;8.12;98.69;95453.38;4941685;28;20426;-81
2022/04/24 03:55:09;;;;;;;295.35;76.90;;;9.20;99.90;;;8.13;98.94;95457.59;4949621;28;20475;-81
2022/04/24 03:57:35;;;;;;;277.08;72.85;;;9.20;99.90;;;8.13;98.87;95451.53;4938392;28;20438;-80
2022/04/24 04:00:01;;;;;;;262.40;67.53;;;9.20;99.90;;;8.15;99.05;95455.47;4937964;28;20416;-80
2022/04/24 04:02:27;;;;;;;239.73;63.28;;;9.20;99.90;;;8.18;99.02;95456.75;4930143;28;20416;-80
2022/04/24 04:04:53;;;;;;;273.10;68.35;;;9.20;99.90;;;8.20;99.21;95456.44;4930603;28;20408;-81
2022/04/24 04:07:18;;;;;;;267.17;67.22;;;9.20;99.90;;;8.22;99.20;95462.22;4936125;28;20432;-80
2022/04/24 04:09:44;;;;;;;297.57;78.23;;;9.30;99.90;;;8.24;99.23;95458.25;4943833;28;20903;-80
2022/04/24 04:12:12;;;;;;;314.42;82.50;;;9.30;99.90;;;8.30;99.36;95465.03;4956731;29;20417;-80
2022/04/24 04:14:38;;;;;;;303.67;81.35;;;9.30;99.90;;;8.31;99.55;95463.22;4960205;28;20418;-80
2022/04/24 04:17:05;;;;;;;310.58;82.22;;;9.30;99.90;;;8.28;99.65;95475.06;4951838;29;20406;-80
2022/04/24 04:19:31;;;;;;;295.38;77.85;;;9.30;99.90;;;8.26;99.71;95461.41;4960313;29;20434;-80
2022/04/24 04:21:57;;;;;;;296.90;79.28;;;9.30;99.90;;;8.25;100.00;95472.22;4959874;29;20416;-79
2022/04/24 04:24:22;;;;;;;238.40;68.83;;;9.30;99.90;;;8.21;100.00;95466.72;4961225;29;20523;-80
2022/04/24 04:26:48;;;;;;;319.98;78.32;;;9.20;99.90;;;8.28;100.00;95480.31;4951791;28;20419;-79
2022/04/24 04:29:16;;;;;;;322.20;79.88;;;9.20;99.90;;;8.25;100.00;95488.81;4955307;28;20446;-79
2022/04/24 04:31:41;;;;;;;373.27;87.97;;;9.30;99.90;;;8.28;100.00;95490.88;4958482;28;20506;-80
2022/04/24 04:34:07;;;;;;;300.42;85.28;;;9.30;99.90;;;8.18;100.00;95506.03;4955049;28;20433;-80
2022/04/24 04:36:34;;;;;;;341.47;87.57;;;9.20;99.90;;;8.12;100.00;95521.09;4952961;28;20544;-80
2022/04/24 04:38:59;;;;;;;366.17;86.90;;;9.20;99.90;;;8.09;100.00;95540.91;4943160;29;20415;-79
2022/04/24 04:41:25;;;;;;;373.53;88.83;;;9.10;99.90;;;8.07;100.00;95539.63;4944258;29;20415;-78
2022/04/24 04:43:51;;;;;;;179.98;48.90;;;9.10;99.90;;;7.64;100.00;95533.47;4950151;29;20414;-79
2022/04/24 04:46:19;;;;;;;156.55;38.05;;;8.80;99.90;;;7.61;100.00;95541.91;4935627;28;20431;-78
2022/04/24 04:48:44;;;;;;;62.83;19.60;;;8.60;99.90;;;7.21;100.00;95532.50;4959220;23;20434;-84
2022/04/24 04:51:10;;;;;;;68.77;19.50;;;8.30;99.90;;;7.22;100.00;95529.56;4947901;28;20475;-87
2022/04/24 04:53:36;;;;;;;52.70;16.75;;;8.30;99.90;;;7.10;100.00;95533.63;4965351;28;20522;-89
2022/04/24 04:56:03;;;;;;;32.70;11.57;;;8.10;99.90;;;7.20;100.00;95536.97;4945289;29;20400;-88
2022/04/24 04:58:29;;;;;;;23.30;7.30;;;8.20;99.90;;;6.98;100.00;95547.91;4943523;29;20412;-85
2022/04/24 05:00:55;;;;;;;16.60;4.40;;;8.10;99.90;;;6.70;100.00;95540.69;4937877;29;20489;-87
2022/04/24 05:03:23;;;;;;;10.18;4.30;;;7.80;99.90;;;6.82;100.00;95540.38;4938901;29;20446;-85
2022/04/24 05:05:49;;;;;;;11.10;3.80;;;7.90;99.90;;;6.74;100.00;95543.59;4940451;29;20412;-89
2022/04/24 05:08:14;;;;;;;9.77;3.20;;;7.80;99.90;;;6.81;100.00;95546.69;4936495;29;20441;-84
2022/04/24 05:10:40;;;;;;;8.13;2.92;;;7.80;99.90;;;6.73;100.00;95549.91;4939574;29;20420;-87
2022/04/24 05:13:06;;;;;;;6.43;2.65;;;7.80;99.90;;;6.71;100.00;95549.38;4933514;29;20577;-87
2022/04/24 05:15:32;;;;;;;5.05;2.38;;;7.80;99.90;;;6.65;100.00;95553.09;4939441;29;20416;-89
2022/04/24 05:17:58;;;;;;;7.20;2.70;;;7.70;99.90;;;6.59;100.00;95562.84;4941491;29;20433;-85
2022/04/24 05:20:26;;;;;;;6.68;2.30;;;7.70;99.90;;;6.58;100.00;95585.72;4933704;29;20468;-86
2022/04/24 05:23:02;;;;;;;15.00;2.42;;;7.60;99.90;;;6.52;100.00;95578.91;4902192;29;20430;-84
2022/04/24 05:25:28;;;;;;;13.43;2.25;;;7.60;99.90;;;6.45;100.00;95580.25;4912964;29;20409;-84
2022/04/24 05:27:54;;;;;;;3.58;1.58;;;7.60;99.90;;;6.45;100.00;95582.88;4922748;29;20776;-83
2022/04/24 05:30:20;;;;;;;6.22;1.92;;;7.50;99.90;;;6.40;100.00;95583.69;4928326;29;20420;-85
2022/04/24 05:32:50;;;;;;;5.40;1.80;;;7.50;99.90;;;6.37;100.00;95586.06;4936570;29;20500;-86
2022/04/24 05:35:16;;;;;;;8.25;1.80;;;7.50;99.90;;;6.32;100.00;95586.84;4907554;29;21291;-85
2022/04/24 05:37:47;;;;;;;4.47;1.60;;;7.40;99.90;;;6.03;100.00;95593.75;4935320;29;20412;-84
2022/04/24 05:40:14;;;;;;;3.35;1.33;;;7.30;99.90;;;6.19;100.00;95593.47;4934969;29;20411;-85
2022/04/24 05:42:49;;;;;;;2.50;1.38;;;7.30;99.90;;;6.25;100.00;95588.97;4936149;29;20408;-85
2022/04/24 05:45:18;;;;;;;2.80;1.50;;;7.40;99.90;;;6.28;100.00;95585.84;4932247;29;20425;-84
2022/04/24 05:47:45;;;;;;;3.00;1.50;;;7.40;99.90;;;6.34;100.00;95594.47;4918506;29;20891;-85
2022/04/24 05:50:12;;;;;;;7.68;1.60;;;7.40;99.90;;;6.15;100.00;95623.97;4920717;29;20413;-83
2022/04/24 05:52:38;;;;;;;2.43;1.57;;;7.30;99.90;;;6.20;100.00;95597.66;4934827;28;20453;-83
2022/04/24 05:55:07;;;;;;;2.95;1.60;;;7.30;99.90;;;6.01;100.00;95615.06;4933090;29;20444;-84
2022/04/24 05:57:33;;;;;;;3.45;1.40;;;7.10;99.90;;;6.02;100.00;95595.59;4941067;29;20404;-84
2022/04/24 05:59:59;;;;;;;2.47;1.52;;;7.10;99.90;;;6.10;100.00;95589.81;4939584;29;20442;-85
2022/04/24 06:02:24;;;;;;;6.00;1.48;;;7.20;99.90;;;6.01;100.00;95601.94;4914472;29;20409;-84
2022/04/24 06:04:50;;;;;;;3.50;1.42;;;7.10;99.90;;;6.08;100.00;95601.66;4932210;29;20427;-83
2022/04/24 06:07:16;;;;;;;3.70;1.50;;;7.20;99.90;;;6.15;100.00;95599.53;4928773;29;20416;-86
2022/04/24 06:09:42;;;;;;;3.13;1.50;;;7.20;99.90;;;6.16;100.00;95607.13;4936337;29;20407;-84
2022/04/24 06:12:10;;;;;;;1.63;1.30;;;7.20;99.90;;;6.16;100.00;95609.75;4932562;29;20430;-82
2022/04/24 06:14:36;;;;;;;4.83;1.37;;;7.20;99.90;;;6.02;100.00;95608.72;4925805;29;20501;-83
2022/04/24 06:17:03;;;;;;;3.22;1.40;;;7.10;99.90;;;6.05;100.00;95625.81;4931007;29;20419;-78
2022/04/24 06:19:29;;;;;;;2.45;1.45;;;7.20;99.90;;;6.14;100.00;95609.25;4943354;29;20909;-78
2022/04/24 06:21:55;;;;;;;3.75;1.65;;;7.20;99.90;;;6.03;100.00;95618.19;4914870;28;20425;-75
2022/04/24 06:24:21;;;;;;;3.00;1.48;;;7.10;99.90;;;6.18;100.00;95617.38;4918255;28;20421;-74
2022/04/24 06:26:47;;;;;;;3.13;1.50;;;7.20;99.90;;;6.17;100.00;95607.91;4911664;29;20516;-74
2022/04/24 06:29:14;;;;;;;3.28;1.65;;;7.30;99.90;;;6.03;100.00;95622.66;4935030;28;20406;-75
2022/04/24 06:31:40;;;;;;;11.07;1.60;;;7.20;99.90;;;6.00;100.00;95617.94;4950940;28;20416;-75
2022/04/24 06:34:06;;;;;;;3.75;1.50;;;7.10;99.90;;;6.05;100.00;95615.31;4954671;28;20418;-75
2022/04/24 06:36:32;;;;;;;1.45;1.33;;;7.10;99.90;;;6.17;100.00;95608.69;4967337;28;20778;-78
2022/04/24 06:39:00;;;;;;;1.55;1.45;;;7.20;99.90;;;6.15;100.00;95620.53;4933226;29;20935;-80
2022/04/24 06:41:26;;;;;;;1.38;1.27;;;7.30;99.90;;;6.09;100.00;95611.88;4923922;29;20413;-81
2022/04/24 06:43:52;;;;;;;1.92;1.50;;;7.20;99.90;;;6.26;100.00;95606.31;4923778;29;20406;-80
2022/04/24 06:46:19;;;;;;;3.53;1.50;;;7.30;99.90;;;6.32;100.00;95607.88;4916510;29;20505;-80
2022/04/24 06:48:45;;;;;;;2.75;1.42;;;7.40;99.90;;;6.29;100.00;95603.16;4932697;29;20420;-80
2022/04/24 06:51:11;;;;;;;4.93;3.80;;;7.40;99.90;;;6.36;100.00;95611.56;4927679;29;20416;-79
2022/04/24 06:53:38;;;;;;;1.45;1.30;;;7.40;99.90;;;6.39;100.00;95597.09;4932300;29;20427;-80
2022/04/24 06:56:04;;;;;;;1.92;1.30;;;7.50;99.90;;;6.45;100.00;95606.53;4931014;29;20773;-78
2022/04/24 06:58:31;;;;;;;4.78;1.40;;;7.50;99.90;;;6.43;100.00;95609.44;4932211;29;20557;-80
2022/04/24 07:00:56;;;;;;;2.28;1.58;;;7.50;99.90;;;6.40;100.00;95617.06;4922931;29;20461;-76
2022/04/24 07:03:26;;;;;;;3.38;1.45;;;7.50;99.90;;;6.50;100.00;95611.78;4929966;29;20455;-76
2022/04/24 07:06:00;;;;;;;1.75;1.65;;;7.50;99.90;;;6.48;100.00;95612.03;4911892;29;20406;-75
2022/04/24 07:08:29;;;;;;;1.83;1.20;;;7.50;99.90;;;6.51;100.00;95603.63;4926350;29;20446;-75
2022/04/24 07:10:55;;;;;;;1.63;1.42;;;7.50;99.90;;;6.50;100.00;95617.81;4908755;29;20472;-75
2022/04/24 07:13:21;;;;;;;2.00;1.33;;;7.50;99.90;;;6.53;100.00;95625.19;4914199;29;20427;-76
2022/04/24 07:15:48;;;;;;;4.00;1.67;;;7.60;99.90;;;6.47;100.00;95615.72;4907980;29;20453;-75
2022/04/24 07:18:14;;;;;;;1.70;1.60;;;7.60;99.90;;;6.53;100.00;95624.38;4909784;28;20428;-75
2022/04/24 07:20:41;;;;;;;2.40;1.40;;;7.60;99.90;;;6.49;100.00;95629.38;4914708;29;20421;-75
2022/04/24 07:23:07;;;;;;;1.60;1.50;;;7.60;99.90;;;6.49;100.00;95636.47;4924168;29;20411;-75
2022/04/24 07:25:39;;;;;;;3.17;1.70;;;7.60;99.90;;;6.55;100.00;95635.41;4931582;29;20415;-77
2022/04/24 07:28:05;;;;;;;2.47;1.42;;;7.60;99.90;;;6.43;100.00;95635.72;4924279;29;20777;-76
2022/04/24 07:30:31;;;;;;;6.43;2.00;;;7.50;99.90;;;6.50;100.00;95649.34;4920635;29;20443;-75
2022/04/24 07:32:58;;;;;;;3.63;1.40;;;7.60;99.90;;;6.42;100.00;95657.78;4931066;29;20432;-76
2022/04/24 07:35:27;;;;;;;12.25;3.42;;;7.50;99.90;;;6.33;100.00;95664.63;4927812;29;20442;-76
2022/04/24 07:37:55;;;;;;;6.45;1.88;;;7.50;99.90;;;6.52;100.00;95652.50;4923917;29;20772;-72
2022/04/24 07:40:23;;;;;;;2.47;2.03;;;7.60;99.90;;;6.64;100.00;95654.03;4925262;28;20523;-76
2022/04/24 07:42:51;;;;;;;1.90;1.70;;;7.70;99.90;;;6.62;100.00;95651.69;4912187;29;20464;-74
2022/04/24 07:45:19;;;;;;;2.83;1.48;;;7.70;99.90;;;6.61;100.00;95650.88;4919441;29;20404;-76
2022/04/24 07:47:46;;;;;;;3.33;1.40;;;7.70;99.90;;;6.46;100.00;95656.22;4931105;29;20525;-73
2022/04/24 07:50:13;;;;;;;1.88;1.58;;;7.60;99.90;;;6.53;100.00;95659.34;4931086;29;20418;-76
2022/04/24 07:52:39;;;;;;;3.80;1.50;;;7.60;99.90;;;6.58;100.00;95651.44;4928122;29;20935;-74
2022/04/24 07:55:09;;;;;;;3.85;1.40;;;7.60;99.90;;;6.70;100.00;95656.38;4931140;29;20420;-77
2022/04/24 07:57:35;;;;;;;3.65;1.58;;;7.70;99.90;;;6.63;100.00;95655.88;4931381;29;20907;-75
2022/04/24 08:00:02;;;;;;;3.97;1.47;;;7.80;99.90;;;6.67;100.00;95658.78;4914323;29;20502;-76
2022/04/24 08:02:28;;;;;;;1.97;1.40;;;7.70;99.90;;;6.68;100.00;95660.34;4924590;29;20474;-75
2022/04/24 08:04:53;;;;;;;1.95;1.25;;;7.70;99.90;;;6.81;100.00;95655.31;4927306;29;21105;-76
2022/04/24 08:07:22;;;;;;;3.83;1.58;;;7.80;99.90;;;6.72;100.00;95651.66;4909997;29;20499;-75
2022/04/24 08:09:48;;;;;;;3.70;1.80;;;7.80;99.90;;;6.79;100.00;95644.25;4911878;29;20421;-75
2022/04/24 08:12:16;;;;;;;1.90;1.38;;;7.80;99.90;;;6.77;100.00;95649.00;4911424;28;20443;-73
2022/04/24 08:14:42;;;;;;;2.47;1.40;;;7.80;99.90;;;6.73;100.00;95645.34;4910710;28;20977;-74
2022/04/24 08:17:08;;;;;;;6.32;1.50;;;7.90;99.90;;;6.84;100.00;95656.63;4912643;29;20961;-72
2022/04/24 08:19:34;;;;;;;14.52;1.60;;;7.90;99.90;;;6.70;100.00;95656.38;4911517;29;20406;-75
2022/04/24 08:22:00;;;;;;;5.93;1.52;;;7.90;99.90;;;6.85;100.00;95668.69;4911688;29;20409;-77
2022/04/24 08:24:26;;;;;;;5.28;1.60;;;7.90;99.90;;;6.82;100.00;95672.66;4913499;29;20950;-75
2022/04/24 08:26:52;;;;;;;3.65;1.50;;;7.90;99.90;;;6.87;100.00;95677.09;4910482;29;20425;-76
2022/04/24 08:29:19;;;;;;;2.80;1.30;;;7.90;99.90;;;6.85;100.00;95672.09;4912578;29;20415;-75
2022/04/24 08:31:45;;;;;;;9.65;1.85;;;7.90;99.90;;;6.89;100.00;95675.78;4920690;29;20422;-74
2022/04/24 08:34:11;;;;;;;4.28;1.50;;;7.90;99.90;;;6.92;100.00;95684.97;4917488;29;20429;-75
2022/04/24 08:36:37;;;;;;;3.33;1.58;;;8.00;99.90;;;7.04;100.00;95684.66;4903618;28;20434;-75
2022/04/24 08:39:03;;;;;;;2.38;1.42;;;8.10;99.90;;;7.05;100.00;95686.25;4908009;28;20544;-76
2022/04/24 08:41:31;;;;;;;3.60;1.70;;;8.10;99.90;;;7.06;100.00;95686.00;4906470;28;20764;-75
2022/04/24 08:43:57;;;;;;;4.65;1.70;;;8.10;99.90;;;7.11;100.00;95688.59;4910811;28;20425;-76
2022/04/24 08:46:25;;;;;;;10.70;1.83;;;8.10;99.90;;;7.12;100.00;95689.38;4905575;28;20448;-75
2022/04/24 08:48:52;;;;;;;8.63;2.07;;;8.20;99.90;;;7.15;100.00;95691.44;4909796;28;20971;-75
2022/04/24 08:51:21;;;;;;;2.25;1.60;;;8.20;99.90;;;7.23;100.00;95694.31;4907641;28;20432;-75
2022/04/24 08:53:48;;;;;;;4.00;1.70;;;8.30;99.90;;;7.32;100.00;95699.78;4907593;28;20476;-75
2022/04/24 08:56:14;;;;;;;2.58;1.70;;;8.40;99.90;;;7.37;100.00;95699.75;4908432;28;20944;-74
2022/04/24 08:58:42;;;;;;;4.85;1.98;;;8.40;99.90;;;7.44;100.00;95694.22;4908521;28;20466;-76
2022/04/24 09:01:08;;;;;;;3.53;1.83;;;8.50;99.90;;;7.44;100.00;95702.13;4913621;28;20810;-76
2022/04/24 09:03:36;;;;;;;7.10;2.00;;;8.50;99.90;;;7.45;100.00;95698.41;4916481;28;20407;-76
2022/04/24 09:06:02;;;;;;;11.05;2.20;;;8.50;99.90;;;7.41;100.00;95697.38;4925489;28;20863;-75
2022/04/24 09:08:30;;;;;;;3.30;1.80;;;8.50;99.90;;;7.38;100.00;95701.34;4920250;28;20500;-75
2022/04/24 09:10:58;;;;;;;6.72;1.90;;;8.40;99.90;;;7.45;100.00;95708.94;4915094;28;20452;-75
2022/04/24 09:13:32;;;;;;;5.85;2.10;;;8.50;99.90;;;7.55;100.00;95706.25;4922859;28;20424;-75
2022/04/24 09:16:00;;;;;;;4.88;1.90;;;8.60;99.90;;;7.34;100.00;95711.63;4923385;28;20479;-74
2022/04/24 09:18:41;;;;;;;4.93;1.90;;;8.50;99.90;;;7.54;100.00;95712.56;4930621;28;20960;-74
2022/04/24 09:21:07;;;;;;;6.90;2.03;;;8.60;99.90;;;7.42;100.00;95718.19;4932064;28;20536;-75
2022/04/24 09:23:34;;;;;;;3.63;2.08;;;8.50;99.90;;;7.46;100.00;95721.03;4914237;28;20436;-75
2022/04/24 09:26:00;;;;;;;4.47;2.10;;;8.50;99.90;;;7.53;100.00;95724.16;4910897;28;20463;-75
2022/04/24 09:28:36;;;;;;;5.05;2.17;;;8.50;99.90;;;7.61;100.00;95721.75;4921515;29;20429;-75
2022/04/24 09:31:03;;;;;;;5.53;2.30;;;8.60;99.90;;;7.75;100.00;95727.97;4912726;28;20483;-75
2022/04/24 09:33:36;;;;;;;5.20;2.28;;;8.80;99.90;;;7.77;100.00;95730.34;4904441;28;20462;-75
2022/04/24 09:36:03;;;;;;;4.97;2.60;;;8.80;99.90;;;7.83;100.00;95723.97;4913253;28;20511;-77
2022/04/24 09:38:29;;;;;;;11.23;2.40;;;8.80;99.90;;;7.88;100.00;95733.69;4908979;28;20923;-74
2022/04/24 09:40:55;;;;;;;5.75;2.30;;;8.90;99.90;;;7.97;100.00;95737.34;4914600;28;20410;-74
2022/04/24 09:43:21;;;;;;;8.35;2.97;;;9.00;99.90;;;7.80;100.00;95731.66;4910662;28;20441;-74
2022/04/24 09:45:49;;;;;;;6.75;2.67;;;8.90;99.90;;;7.71;100.00;95736.69;4911031;28;20812;-74
2022/04/24 09:48:17;;;;;;;6.60;2.63;;;8.80;99.90;;;7.62;100.00;95739.13;4911386;28;20531;-74
2022/04/24 09:50:43;;;;;;;4.68;2.55;;;8.60;99.90;;;7.52;100.00;95739.16;4914236;28;20438;-74
2022/04/24 09:53:13;;;;;;;4.47;2.57;;;8.60;99.90;;;7.59;100.00;95737.00;4909539;28;21044;-74
2022/04/24 09:55:43;;;;;;;8.25;3.05;;;8.60;99.90;;;7.70;100.00;95743.03;4913043;28;20475;-73
2022/04/24 09:58:11;;;;;;;9.43;3.33;;;8.70;99.90;;;7.79;100.00;95744.03;4913762;28;20465;-72
2022/04/24 10:00:37;;;;;;;7.88;2.80;;;8.80;99.90;;;7.76;100.00;95740.09;4910243;28;20472;-73
2022/04/24 10:03:04;;;;;;;5.90;2.85;;;8.80;99.90;;;7.91;100.00;95746.31;4913699;28;20414;-73
2022/04/24 10:05:31;;;;;;;7.60;3.08;;;8.90;99.90;;;7.96;100.00;95746.28;4914599;28;20497;-72
2022/04/24 10:07:58;;;;;;;6.85;3.10;;;9.00;99.90;;;8.06;100.00;95747.00;4908289;28;20914;-71
2022/04/24 10:10:26;;;;;;;7.70;3.00;;;9.10;99.90;;;7.94;100.00;95756.31;4910066;28;20718;-72
2022/04/24 10:12:53;;;;;;;16.55;3.22;;;9.00;99.90;;;7.99;100.00;95756.28;4916328;29;20515;-73
2022/04/24 10:15:23;;;;;;;8.52;2.85;;;9.10;99.90;;;7.94;100.00;95756.31;4915525;29;20420;-75
2022/04/24 10:18:36;;;;;;;11.75;3.15;;;9.00;99.90;;;8.10;100.00;95752.53;4915328;29;20478;-75